Time;durP1;ratioP1;P1;durP2;ratioP2;P2;SDS_P1;SDS_P2;PMS_P1;PMS_P2;Temp;Humidity;BMP_temperature;BMP_pressure;BME280_temperature;BME280_humidity;BME280_pressure;Samples;Min_cycle;Max_cycle;Signal;HPM_P1;HPM_P2
2024/01/03 00:00:27;;;;;;;9.05;2.25;;;12.70;72.90;;;;;;5052065;28;20464;-61
2024/01/03 00:02:54;;;;;;;11.13;2.67;;;12.70;72.80;;;;;;5049722;28;20033;-62
2024/01/03 00:05:22;;;;;;;10.95;2.58;;;12.70;72.80;;;;;;5051448;28;20033;-61
2024/01/03 00:07:48;;;;;;;10.85;2.63;;;12.70;72.80;;;;;;5050933;28;20094;-61
2024/01/03 00:10:41;;;;;;;8.95;2.33;;;12.70;72.70;;;;;;5052797;28;20025;-62
2024/01/03 00:13:38;;;;;;;15.23;4.72;;;12.70;72.60;;;;;;5051577;28;20037;-62
2024/01/03 00:16:12;;;;;;;29.27;13.10;;;12.70;72.50;;;;;;5050321;28;20021;-61
2024/01/03 00:18:53;;;;;;;36.85;18.63;;;12.70;72.50;;;;;;5048381;28;20032;-62
2024/01/03 00:21:23;;;;;;;39.22;17.83;;;12.70;72.50;;;;;;5053200;28;20025;-61
2024/01/03 00:23:52;;;;;;;35.50;16.92;;;12.70;72.50;;;;;;5050935;28;20108;-64
2024/01/03 00:26:18;;;;;;;31.48;17.70;;;12.70;72.50;;;;;;5052234;28;20063;-61
2024/01/03 00:28:45;;;;;;;26.30;12.00;;;12.70;72.30;;;;;;5052223;28;20028;-61
2024/01/03 00:31:23;;;;;;;28.23;11.57;;;12.70;72.30;;;;;;5051145;28;20107;-62
2024/01/03 00:33:49;;;;;;;28.10;12.40;;;12.70;72.20;;;;;;5047903;28;20025;-61
2024/01/03 00:36:16;;;;;;;24.92;11.27;;;12.70;72.10;;;;;;5034271;28;20035;-61
2024/01/03 00:38:42;;;;;;;24.15;11.32;;;12.80;72.10;;;;;;5034413;28;20033;-61
2024/01/03 00:41:12;;;;;;;28.27;11.85;;;12.70;72.10;;;;;;5051207;28;20083;-61
2024/01/03 00:43:39;;;;;;;24.10;10.52;;;12.80;72.20;;;;;;5051076;28;20025;-61
2024/01/03 00:46:06;;;;;;;25.80;12.02;;;12.80;72.10;;;;;;5055935;28;20036;-61
2024/01/03 00:48:32;;;;;;;35.20;15.57;;;12.70;72.00;;;;;;5051902;28;20043;-61
2024/01/03 00:50:59;;;;;;;28.33;14.98;;;12.80;72.10;;;;;;5058631;28;20361;-61
2024/01/03 00:53:25;;;;;;;27.30;11.52;;;12.80;72.10;;;;;;5056996;28;20041;-62
2024/01/03 00:55:52;;;;;;;24.63;9.98;;;12.80;71.90;;;;;;5055463;28;20403;-61
2024/01/03 00:58:19;;;;;;;20.10;9.30;;;12.70;71.70;;;;;;5054842;28;20111;-61
2024/01/03 01:00:46;;;;;;;20.38;7.15;;;12.80;72.40;;;;;;5055288;28;20460;-61
2024/01/03 01:03:12;;;;;;;13.05;4.97;;;12.80;71.50;;;;;;5058413;28;20033;-61
2024/01/03 01:05:38;;;;;;;14.55;5.20;;;12.80;71.40;;;;;;5055275;28;20052;-61
2024/01/03 01:08:05;;;;;;;15.38;3.55;;;12.70;71.40;;;;;;5056665;28;20079;-61
2024/01/03 01:10:31;;;;;;;10.02;3.10;;;12.80;71.50;;;;;;5053281;28;20048;-62
2024/01/03 01:12:56;;;;;;;9.93;2.78;;;12.80;71.50;;;;;;5053723;28;20068;-61
2024/01/03 01:15:22;;;;;;;11.82;2.83;;;12.80;71.40;;;;;;5054380;28;20033;-61
2024/01/03 01:17:48;;;;;;;13.55;3.13;;;12.70;71.40;;;;;;5036692;28;20040;-61
2024/01/03 01:20:14;;;;;;;12.38;4.20;;;12.70;71.40;;;;;;5053282;28;20052;-61
2024/01/03 01:22:40;;;;;;;18.10;6.07;;;12.80;71.50;;;;;;5055695;28;20027;-62
2024/01/03 01:25:06;;;;;;;20.88;6.55;;;12.80;71.50;;;;;;5054958;28;21548;-62
2024/01/03 01:27:32;;;;;;;17.33;6.10;;;12.80;71.50;;;;;;5055830;28;20442;-62
2024/01/03 01:29:58;;;;;;;11.88;5.03;;;12.80;71.50;;;;;;5052441;28;20044;-62
2024/01/03 01:32:24;;;;;;;13.43;4.50;;;12.80;71.50;;;;;;5037754;28;20044;-62
2024/01/03 01:34:50;;;;;;;21.83;5.03;;;12.80;71.60;;;;;;5054407;28;20028;-62
2024/01/03 01:37:16;;;;;;;12.82;4.18;;;12.70;71.50;;;;;;5034347;28;20035;-61
2024/01/03 01:39:44;;;;;;;15.30;4.32;;;12.80;71.60;;;;;;5054054;28;20037;-61
2024/01/03 01:42:10;;;;;;;13.43;3.95;;;12.80;71.60;;;;;;5053310;28;20366;-61
2024/01/03 01:44:36;;;;;;;14.70;4.25;;;12.70;71.60;;;;;;5051783;28;20479;-62
2024/01/03 01:47:05;;;;;;;21.20;4.40;;;12.70;71.60;;;;;;5052870;28;20025;-61
2024/01/03 01:49:32;;;;;;;11.68;2.88;;;12.80;71.60;;;;;;5053867;28;20024;-63
2024/01/03 01:51:58;;;;;;;13.38;3.10;;;12.80;71.70;;;;;;5053097;28;20100;-61
2024/01/03 01:54:25;;;;;;;16.80;3.05;;;12.70;71.60;;;;;;5054144;28;20047;-61
2024/01/03 01:56:51;;;;;;;16.23;3.38;;;12.70;71.70;;;;;;5054871;28;20369;-61
2024/01/03 01:59:20;;;;;;;13.95;3.70;;;12.70;71.80;;;;;;5052589;28;20029;-61
2024/01/03 02:01:47;;;;;;;11.95;3.20;;;12.70;71.80;;;;;;5052388;28;20020;-61
2024/01/03 02:04:13;;;;;;;18.17;3.10;;;12.70;71.90;;;;;;5053027;28;20416;-61
2024/01/03 02:06:39;;;;;;;18.23;3.22;;;12.70;71.90;;;;;;5053520;28;20299;-61
2024/01/03 02:09:05;;;;;;;13.10;3.30;;;12.70;71.90;;;;;;5052323;28;20021;-61
2024/01/03 02:11:31;;;;;;;14.85;3.65;;;12.70;72.00;;;;;;5054267;28;20457;-61
2024/01/03 02:13:57;;;;;;;11.13;2.25;;;12.70;71.90;;;;;;5055039;28;20102;-61
2024/01/03 02:16:22;;;;;;;13.02;3.38;;;12.80;72.00;;;;;;5054686;28;20025;-62
2024/01/03 02:18:49;;;;;;;14.18;3.28;;;12.80;71.90;;;;;;5056998;28;20071;-62
2024/01/03 02:21:16;;;;;;;14.50;3.05;;;12.80;71.90;;;;;;5052064;28;20044;-61
2024/01/03 02:23:42;;;;;;;12.68;2.50;;;12.80;71.80;;;;;;5036363;28;20784;-61
2024/01/03 02:26:08;;;;;;;12.15;3.13;;;12.80;71.70;;;;;;5054483;28;20398;-61
2024/01/03 02:28:37;;;;;;;12.18;2.78;;;12.80;71.70;;;;;;5053142;28;20029;-61
2024/01/03 02:31:03;;;;;;;12.35;2.80;;;12.80;71.70;;;;;;5055885;28;20116;-61
2024/01/03 02:33:29;;;;;;;12.10;2.58;;;12.80;71.60;;;;;;5051404;28;20179;-61
2024/01/03 02:35:54;;;;;;;21.25;3.72;;;12.80;71.60;;;;;;5053985;28;20035;-61
2024/01/03 02:38:21;;;;;;;15.05;3.03;;;12.80;71.60;;;;;;5054640;28;20029;-61
2024/01/03 02:40:47;;;;;;;18.83;3.40;;;12.80;71.60;;;;;;5055162;28;20040;-61
2024/01/03 02:43:13;;;;;;;9.18;2.47;;;12.80;71.60;;;;;;5053299;28;20021;-61
2024/01/03 02:45:39;;;;;;;12.55;2.90;;;12.80;71.60;;;;;;5053478;28;20028;-62
2024/01/03 02:48:05;;;;;;;14.32;3.22;;;12.80;71.70;;;;;;5052762;28;20025;-61
2024/01/03 02:50:31;;;;;;;15.02;2.90;;;12.70;71.60;;;;;;5053201;28;20395;-62
2024/01/03 02:52:57;;;;;;;11.02;2.95;;;12.70;71.60;;;;;;5052718;28;20152;-62
2024/01/03 02:55:22;;;;;;;13.40;3.13;;;12.70;71.70;;;;;;5051831;28;20055;-62
2024/01/03 02:57:48;;;;;;;13.77;2.72;;;12.80;71.80;;;;;;5052435;28;20118;-63
2024/01/03 03:00:14;;;;;;;13.48;3.10;;;12.70;71.80;;;;;;5049650;28;20174;-62
2024/01/03 03:02:40;;;;;;;17.85;3.50;;;12.80;71.90;;;;;;5055737;28;20036;-62
2024/01/03 03:05:06;;;;;;;13.93;3.95;;;12.80;72.00;;;;;;5055112;28;20049;-62
2024/01/03 03:07:32;;;;;;;15.77;3.42;;;12.80;72.10;;;;;;5037595;28;20033;-62
2024/01/03 03:09:58;;;;;;;14.80;2.92;;;12.70;72.10;;;;;;5055890;28;20042;-62
2024/01/03 03:12:24;;;;;;;17.63;3.65;;;12.70;72.10;;;;;;5053699;28;20040;-62
2024/01/03 03:14:50;;;;;;;13.73;3.97;;;12.70;72.10;;;;;;5053241;28;20037;-62
2024/01/03 03:17:16;;;;;;;12.48;3.25;;;12.70;72.90;;;;;;5052928;28;20045;-61
2024/01/03 03:19:43;;;;;;;18.70;3.70;;;12.70;72.30;;;;;;5053069;28;20406;-62
2024/01/03 03:22:09;;;;;;;12.35;3.13;;;12.70;72.30;;;;;;5052829;28;20400;-62
2024/01/03 03:24:35;;;;;;;13.20;2.55;;;12.70;72.40;;;;;;5053556;28;20029;-62
2024/01/03 03:27:00;;;;;;;14.63;3.83;;;12.70;72.40;;;;;;5056696;28;20863;-62
2024/01/03 03:29:26;;;;;;;16.52;3.28;;;12.70;72.40;;;;;;5053771;28;20029;-62
2024/01/03 03:31:52;;;;;;;12.52;3.33;;;12.70;72.40;;;;;;5053369;28;20020;-62
2024/01/03 03:34:18;;;;;;;14.00;2.80;;;12.70;72.40;;;;;;5054552;28;20029;-62
2024/01/03 03:36:45;;;;;;;13.40;3.05;;;12.80;72.60;;;;;;5037656;28;20048;-62
2024/01/03 03:39:10;;;;;;;14.07;4.05;;;12.70;72.70;;;;;;5053499;28;20037;-62
2024/01/03 03:41:37;;;;;;;11.63;2.72;;;12.70;72.80;;;;;;5035518;28;20039;-62
2024/01/03 03:44:03;;;;;;;16.58;4.43;;;12.70;72.90;;;;;;5050986;28;20377;-62
2024/01/03 03:46:29;;;;;;;16.85;3.15;;;12.70;72.90;;;;;;5051565;28;20044;-62
2024/01/03 03:48:55;;;;;;;19.23;3.78;;;12.70;73.10;;;;;;5052683;28;20017;-62
2024/01/03 03:51:20;;;;;;;14.43;3.28;;;12.70;73.10;;;;;;5054153;28;20021;-62
2024/01/03 03:53:46;;;;;;;20.02;3.80;;;12.70;73.20;;;;;;5052473;28;20366;-62
2024/01/03 03:56:25;;;;;;;12.10;2.65;;;12.70;73.20;;;;;;5052143;28;20064;-62
2024/01/03 03:58:52;;;;;;;18.20;3.33;;;12.70;73.30;;;;;;5054091;28;20056;-62
2024/01/03 04:01:18;;;;;;;16.75;3.65;;;12.70;73.30;;;;;;5054682;28;20033;-62
2024/01/03 04:03:44;;;;;;;18.42;4.05;;;12.70;73.40;;;;;;5054227;28;20450;-62
2024/01/03 04:06:12;;;;;;;13.32;2.97;;;12.70;73.50;;;;;;5052917;28;20017;-62
2024/01/03 04:08:43;;;;;;;15.70;2.90;;;12.60;73.60;;;;;;5052002;28;20369;-62
2024/01/03 04:11:09;;;;;;;16.20;3.35;;;12.60;73.70;;;;;;5041522;28;20506;-62
2024/01/03 04:13:36;;;;;;;18.70;3.75;;;12.60;73.70;;;;;;5054646;28;20159;-62
2024/01/03 04:16:10;;;;;;;14.25;2.97;;;12.60;73.80;;;;;;5053958;28;20056;-62
2024/01/03 04:18:36;;;;;;;14.27;3.67;;;12.60;73.70;;;;;;5035582;28;20036;-62
2024/01/03 04:21:05;;;;;;;16.83;3.45;;;12.60;73.70;;;;;;5052337;28;20075;-62
2024/01/03 04:23:31;;;;;;;19.60;3.55;;;12.60;73.80;;;;;;5053877;28;20311;-62
2024/01/03 04:25:57;;;;;;;17.27;3.00;;;12.60;73.80;;;;;;5057701;28;20044;-62
2024/01/03 04:28:23;;;;;;;15.55;3.53;;;12.60;73.80;;;;;;5057131;28;20057;-62
2024/01/03 04:30:49;;;;;;;14.90;3.05;;;12.60;73.80;;;;;;5056880;28;20043;-62
2024/01/03 04:33:15;;;;;;;16.30;3.50;;;12.60;74.60;;;;;;5053406;28;20055;-62
2024/01/03 04:35:41;;;;;;;14.60;3.47;;;12.60;74.00;;;;;;5055447;28;20025;-62
2024/01/03 04:38:07;;;;;;;15.98;4.07;;;12.60;74.00;;;;;;5054711;28;20088;-62
2024/01/03 04:40:33;;;;;;;17.77;3.45;;;12.60;74.00;;;;;;5055119;28;20464;-62
2024/01/03 04:42:59;;;;;;;14.98;3.20;;;12.60;74.00;;;;;;5056887;28;20090;-62
2024/01/03 04:45:25;;;;;;;15.90;3.63;;;12.60;74.00;;;;;;5055315;28;20025;-62
2024/01/03 04:47:51;;;;;;;13.38;3.08;;;12.60;74.00;;;;;;5054783;28;20024;-62
2024/01/03 04:50:17;;;;;;;13.23;3.00;;;12.60;74.10;;;;;;5057726;28;20032;-62
2024/01/03 04:52:43;;;;;;;15.13;3.63;;;12.60;74.10;;;;;;5056847;28;20143;-62
2024/01/03 04:55:09;;;;;;;16.17;4.10;;;12.60;74.00;;;;;;5057106;28;20052;-62
2024/01/03 04:57:35;;;;;;;16.20;5.07;;;12.70;74.10;;;;;;5053535;28;20035;-62
2024/01/03 05:00:04;;;;;;;19.75;5.60;;;12.70;74.00;;;;;;5052381;28;20033;-62
2024/01/03 05:02:30;;;;;;;16.08;5.38;;;12.60;73.90;;;;;;5055081;28;20412;-62
2024/01/03 05:04:56;;;;;;;21.52;6.20;;;12.60;73.90;;;;;;5056414;28;20052;-62
2024/01/03 05:07:23;;;;;;;20.95;6.53;;;12.60;73.90;;;;;;5056746;28;20492;-62
2024/01/03 05:09:49;;;;;;;23.55;6.78;;;12.70;74.60;;;;;;5054319;28;20412;-62
2024/01/03 05:12:15;;;;;;;16.88;6.05;;;12.60;73.80;;;;;;5057314;28;20086;-62
2024/01/03 05:14:41;;;;;;;16.40;5.88;;;12.60;73.80;;;;;;5057011;28;20025;-62
2024/01/03 05:17:06;;;;;;;18.60;6.35;;;12.60;73.80;;;;;;5057454;28;20029;-62
2024/01/03 05:19:32;;;;;;;18.55;6.13;;;12.60;73.70;;;;;;5055815;28;20350;-62
2024/01/03 05:21:58;;;;;;;16.73;5.88;;;12.60;73.80;;;;;;5056182;28;20459;-62
2024/01/03 05:24:24;;;;;;;17.50;6.13;;;12.60;73.80;;;;;;5055607;28;20033;-62
2024/01/03 05:26:49;;;;;;;15.55;4.50;;;12.60;73.90;;;;;;5058597;28;20013;-62
2024/01/03 05:29:15;;;;;;;18.40;5.32;;;12.50;73.90;;;;;;5058020;28;20025;-63
2024/01/03 05:31:41;;;;;;;13.88;3.90;;;12.50;74.00;;;;;;5055354;28;20445;-62
2024/01/03 05:34:08;;;;;;;18.80;4.18;;;12.50;74.00;;;;;;5041147;28;20131;-62
2024/01/03 05:36:34;;;;;;;13.13;4.03;;;12.50;74.70;;;;;;5057247;28;20029;-62
2024/01/03 05:39:00;;;;;;;11.85;3.22;;;12.50;74.20;;;;;;5058203;28;20020;-62
2024/01/03 05:41:26;;;;;;;15.73;4.25;;;12.50;74.40;;;;;;5057073;28;20429;-61
2024/01/03 05:43:51;;;;;;;13.20;3.22;;;12.50;74.50;;;;;;5054846;28;20033;-62
2024/01/03 05:46:17;;;;;;;14.02;3.03;;;12.50;74.70;;;;;;5054196;28;20438;-62
2024/01/03 05:48:43;;;;;;;13.82;4.10;;;12.50;75.00;;;;;;5054616;28;20401;-62
2024/01/03 05:51:10;;;;;;;19.48;3.78;;;12.50;75.30;;;;;;5056654;28;20056;-61
2024/01/03 05:53:36;;;;;;;12.40;2.95;;;12.40;75.60;;;;;;5037239;28;20074;-62
2024/01/03 05:56:01;;;;;;;13.23;3.00;;;12.40;75.90;;;;;;5056646;28;20040;-62
2024/01/03 05:58:27;;;;;;;11.20;4.03;;;12.40;76.10;;;;;;5057208;28;20095;-62
2024/01/03 06:00:53;;;;;;;14.88;3.30;;;12.40;76.40;;;;;;5057919;28;20103;-62
2024/01/03 06:03:19;;;;;;;13.77;3.65;;;12.40;76.60;;;;;;5056698;28;20072;-62
2024/01/03 06:05:44;;;;;;;9.13;3.00;;;12.40;76.70;;;;;;5056697;28;20051;-62
2024/01/03 06:08:10;;;;;;;13.55;3.13;;;12.40;76.70;;;;;;5058443;28;20048;-61
2024/01/03 06:10:36;;;;;;;10.98;2.92;;;12.40;77.40;;;;;;5057053;28;20119;-62
2024/01/03 06:13:02;;;;;;;10.60;2.78;;;12.40;76.70;;;;;;5055074;28;20029;-62
2024/01/03 06:15:28;;;;;;;11.65;3.08;;;12.40;76.70;;;;;;5058104;28;20017;-62
2024/01/03 06:17:54;;;;;;;11.00;2.42;;;12.40;76.70;;;;;;5039131;28;20331;-62
2024/01/03 06:20:19;;;;;;;10.95;2.25;;;12.30;76.70;;;;;;5058768;28;20028;-62
2024/01/03 06:22:45;;;;;;;10.52;2.45;;;12.30;76.60;;;;;;5055752;28;20170;-62
2024/01/03 06:25:11;;;;;;;9.77;2.20;;;12.30;76.60;;;;;;5058024;28;20033;-61
2024/01/03 06:27:37;;;;;;;9.30;2.65;;;12.30;76.60;;;;;;5037949;28;20029;-62
2024/01/03 06:30:03;;;;;;;11.98;2.55;;;12.30;76.60;;;;;;5055832;28;20108;-62
2024/01/03 06:32:28;;;;;;;9.50;2.17;;;12.30;76.60;;;;;;5056607;28;20016;-62
2024/01/03 06:34:54;;;;;;;6.88;2.22;;;12.30;76.50;;;;;;5053203;28;20467;-61
2024/01/03 06:37:20;;;;;;;8.73;2.00;;;12.30;76.50;;;;;;5056121;28;20017;-62
2024/01/03 06:39:46;;;;;;;6.50;1.92;;;12.30;76.50;;;;;;5054535;28;20044;-62
2024/01/03 06:42:11;;;;;;;6.45;1.77;;;12.30;76.40;;;;;;5067885;28;20051;-61
2024/01/03 06:44:37;;;;;;;9.80;2.10;;;12.40;76.40;;;;;;5075367;28;20074;-63
2024/01/03 06:47:03;;;;;;;5.70;1.67;;;12.40;76.40;;;;;;5056991;28;20060;-62
2024/01/03 06:49:29;;;;;;;6.70;1.98;;;12.30;76.30;;;;;;5060567;28;20057;-62
2024/01/03 06:51:57;;;;;;;6.47;2.03;;;12.40;76.30;;;;;;5054813;28;20464;-62
2024/01/03 06:54:22;;;;;;;5.47;1.30;;;12.40;76.30;;;;;;5056985;28;20033;-62
2024/01/03 06:56:48;;;;;;;6.10;1.65;;;12.40;76.30;;;;;;5059049;28;20106;-62
2024/01/03 06:59:14;;;;;;;7.72;1.65;;;12.30;76.30;;;;;;5054457;28;20048;-61
2024/01/03 07:01:40;;;;;;;5.53;1.58;;;12.30;76.30;;;;;;5061845;28;20028;-61
2024/01/03 07:04:05;;;;;;;5.50;1.70;;;12.30;76.30;;;;;;5062108;28;20111;-62
2024/01/03 07:06:31;;;;;;;7.63;1.83;;;12.30;76.30;;;;;;5070443;28;20371;-62
2024/01/03 07:08:57;;;;;;;6.85;1.17;;;12.30;76.20;;;;;;5062687;28;20067;-62
2024/01/03 07:11:23;;;;;;;4.47;1.50;;;12.30;76.20;;;;;;5075199;28;20028;-62
2024/01/03 07:13:48;;;;;;;6.43;1.23;;;12.30;76.20;;;;;;5073904;28;20025;-62
2024/01/03 07:16:15;;;;;;;4.88;1.30;;;12.20;76.10;;;;;;5066643;28;20024;-61
2024/01/03 07:18:42;;;;;;;4.28;1.20;;;12.30;76.20;;;;;;5073929;28;20031;-61
2024/01/03 07:21:08;;;;;;;6.03;1.15;;;12.20;76.10;;;;;;5075184;28;20105;-62
2024/01/03 07:23:34;;;;;;;3.72;1.23;;;12.20;76.00;;;;;;5054147;28;20032;-63
2024/01/03 07:26:00;;;;;;;2.20;0.90;;;12.20;76.00;;;;;;5053344;28;20032;-63
2024/01/03 07:28:25;;;;;;;3.38;1.02;;;12.20;76.10;;;;;;5053649;28;20099;-62
2024/01/03 07:30:52;;;;;;;5.38;1.42;;;12.20;76.10;;;;;;5073653;28;20154;-62
2024/01/03 07:33:17;;;;;;;6.78;1.20;;;12.20;76.10;;;;;;5021892;28;20033;-62
2024/01/03 07:35:43;;;;;;;3.65;0.90;;;12.20;76.10;;;;;;5052845;28;20032;-63
2024/01/03 07:38:09;;;;;;;6.32;0.98;;;12.20;76.20;;;;;;5055187;28;20075;-62
2024/01/03 07:40:35;;;;;;;2.72;1.00;;;12.10;76.30;;;;;;5051274;28;20132;-63
2024/01/03 07:43:01;;;;;;;1.85;0.70;;;12.10;76.50;;;;;;5052872;28;20430;-63
2024/01/03 07:45:27;;;;;;;4.75;1.13;;;12.10;76.40;;;;;;5054742;28;20112;-63
2024/01/03 07:47:52;;;;;;;3.90;1.02;;;12.10;76.20;;;;;;5037593;28;20107;-62
2024/01/03 07:50:18;;;;;;;2.80;0.85;;;12.10;76.20;;;;;;5052493;28;20114;-63
2024/01/03 07:52:44;;;;;;;3.47;0.73;;;12.10;76.10;;;;;;5052198;28;20426;-63
2024/01/03 07:55:11;;;;;;;3.40;1.02;;;12.10;76.10;;;;;;5054203;28;20436;-62
2024/01/03 07:57:37;;;;;;;4.53;0.85;;;12.00;76.70;;;;;;5052062;28;20120;-62
2024/01/03 08:00:03;;;;;;;1.45;0.65;;;12.00;76.00;;;;;;5060327;28;20382;-65
2024/01/03 08:02:31;;;;;;;2.20;0.77;;;12.00;76.00;;;;;;5058652;28;20029;-62
2024/01/03 08:04:56;;;;;;;3.53;1.10;;;12.00;76.00;;;;;;5068487;28;20442;-62
2024/01/03 08:07:22;;;;;;;2.78;0.80;;;12.00;75.90;;;;;;5034718;28;20115;-62
2024/01/03 08:09:49;;;;;;;2.92;0.93;;;12.00;75.90;;;;;;5058279;28;20033;-62
2024/01/03 08:12:15;;;;;;;2.40;0.80;;;11.90;75.80;;;;;;5034218;28;20021;-62
2024/01/03 08:14:40;;;;;;;4.60;1.20;;;11.90;75.80;;;;;;5051711;28;20029;-62
2024/01/03 08:17:06;;;;;;;4.97;0.95;;;11.90;75.80;;;;;;5050290;28;20043;-62
2024/01/03 08:19:32;;;;;;;1.55;0.63;;;11.90;75.70;;;;;;5051563;28;20082;-63
2024/01/03 08:22:00;;;;;;;5.18;1.38;;;11.90;75.60;;;;;;5051711;28;20025;-62
2024/01/03 08:24:26;;;;;;;1.90;0.75;;;11.90;75.60;;;;;;5050219;28;20370;-63
2024/01/03 08:26:52;;;;;;;3.22;0.75;;;11.90;75.60;;;;;;5057478;28;20330;-63
2024/01/03 08:29:18;;;;;;;2.92;0.85;;;11.90;75.60;;;;;;5053639;28;20469;-62
2024/01/03 08:31:46;;;;;;;2.50;0.80;;;11.90;75.70;;;;;;5054586;28;20021;-63
2024/01/03 08:34:12;;;;;;;3.20;1.00;;;11.90;75.80;;;;;;5034767;28;20029;-63
2024/01/03 08:36:43;;;;;;;4.90;1.10;;;11.90;75.80;;;;;;5051697;28;20036;-62
2024/01/03 08:39:09;;;;;;;4.63;1.10;;;11.90;75.80;;;;;;5052784;28;20471;-62
2024/01/03 08:41:35;;;;;;;7.07;1.05;;;11.90;75.90;;;;;;5057214;28;20119;-62
2024/01/03 08:44:07;;;;;;;6.03;1.40;;;11.90;76.10;;;;;;5052806;28;20086;-62
2024/01/03 08:46:39;;;;;;;5.13;1.67;;;11.90;76.20;;;;;;5049079;28;20028;-62
2024/01/03 08:49:04;;;;;;;4.97;1.65;;;11.90;76.30;;;;;;5054163;28;20100;-62
2024/01/03 08:51:30;;;;;;;6.05;1.38;;;11.90;76.50;;;;;;5059696;28;20518;-62
2024/01/03 08:53:56;;;;;;;4.32;1.55;;;11.90;76.60;;;;;;5040783;28;20408;-62
2024/01/03 08:56:22;;;;;;;5.28;1.92;;;11.90;76.80;;;;;;5056046;28;20048;-62
2024/01/03 08:58:48;;;;;;;6.25;2.10;;;11.90;77.00;;;;;;5051896;28;20033;-64
2024/01/03 09:01:19;;;;;;;5.05;1.60;;;11.90;77.10;;;;;;5049667;28;20029;-61
2024/01/03 09:03:45;;;;;;;6.35;2.00;;;11.90;77.30;;;;;;5052401;28;20072;-62
2024/01/03 09:06:14;;;;;;;4.32;1.60;;;11.90;77.40;;;;;;5054113;28;20065;-61
2024/01/03 09:08:40;;;;;;;6.22;2.20;;;11.90;77.50;;;;;;5050881;28;20073;-62
2024/01/03 09:11:11;;;;;;;6.18;2.20;;;11.90;77.60;;;;;;5055440;28;20040;-61
2024/01/03 09:13:38;;;;;;;5.63;2.03;;;11.90;77.70;;;;;;5049123;28;20420;-61
2024/01/03 09:16:05;;;;;;;7.90;2.33;;;12.00;77.90;;;;;;5053026;28;20029;-63
2024/01/03 09:18:31;;;;;;;6.97;2.10;;;11.90;77.80;;;;;;5057364;28;21150;-63
2024/01/03 09:20:59;;;;;;;8.15;2.15;;;11.90;77.90;;;;;;5055857;28;20024;-62
2024/01/03 09:23:27;;;;;;;6.93;2.15;;;11.90;78.00;;;;;;5055727;28;20042;-63
2024/01/03 09:25:55;;;;;;;5.88;2.05;;;12.00;78.20;;;;;;5053320;28;20048;-62
2024/01/03 09:28:21;;;;;;;7.60;2.30;;;11.90;78.20;;;;;;5049168;28;20128;-63
2024/01/03 09:30:48;;;;;;;5.50;1.98;;;12.00;78.40;;;;;;5052241;28;20057;-62
2024/01/03 09:33:13;;;;;;;9.18;2.00;;;12.00;78.50;;;;;;5055626;28;20029;-63
2024/01/03 09:35:39;;;;;;;9.50;2.38;;;12.00;78.50;;;;;;5054213;28;20097;-62
2024/01/03 09:38:05;;;;;;;7.75;1.85;;;12.00;78.50;;;;;;5054595;28;20351;-62
2024/01/03 09:40:33;;;;;;;10.60;2.72;;;12.00;78.60;;;;;;5053337;28;20454;-62
2024/01/03 09:43:02;;;;;;;6.53;2.50;;;12.00;78.70;;;;;;5053226;28;20104;-62
2024/01/03 09:45:28;;;;;;;10.35;2.47;;;12.00;78.80;;;;;;5056937;28;20123;-62
2024/01/03 09:47:54;;;;;;;6.45;2.40;;;12.00;78.90;;;;;;5056851;28;20353;-62
2024/01/03 09:50:21;;;;;;;8.32;2.28;;;12.00;78.90;;;;;;5056770;28;20025;-62
2024/01/03 09:52:48;;;;;;;9.60;2.33;;;12.00;79.00;;;;;;5059673;28;20078;-63
2024/01/03 09:55:15;;;;;;;7.88;2.03;;;12.00;79.70;;;;;;5054752;28;20363;-62
2024/01/03 09:57:41;;;;;;;10.57;2.72;;;12.00;79.10;;;;;;5054458;28;20338;-62
2024/01/03 10:00:08;;;;;;;9.15;2.50;;;12.10;79.20;;;;;;5060331;28;20090;-63
2024/01/03 10:02:37;;;;;;;8.35;1.92;;;12.10;79.20;;;;;;5056229;28;20079;-62
2024/01/03 10:05:06;;;;;;;8.00;2.10;;;12.10;79.30;;;;;;5055252;28;20021;-62
2024/01/03 10:07:33;;;;;;;6.93;2.40;;;12.10;79.40;;;;;;5057236;28;20104;-62
2024/01/03 10:09:58;;;;;;;7.30;2.05;;;12.10;79.40;;;;;;5056649;28;20021;-62
2024/01/03 10:12:24;;;;;;;13.77;2.78;;;12.10;80.00;;;;;;5053621;28;20461;-62
2024/01/03 10:14:50;;;;;;;12.38;2.65;;;12.10;79.40;;;;;;5055574;28;20051;-62
2024/01/03 10:17:16;;;;;;;9.60;2.50;;;12.10;79.40;;;;;;5062979;28;20028;-62
2024/01/03 10:19:42;;;;;;;10.35;2.75;;;12.10;79.40;;;;;;5076097;28;20036;-62
2024/01/03 10:22:09;;;;;;;12.98;3.05;;;12.10;79.50;;;;;;5069424;28;20079;-62
2024/01/03 10:24:44;;;;;;;12.23;2.42;;;12.10;79.50;;;;;;5067481;28;20029;-62
2024/01/03 10:27:11;;;;;;;13.73;2.70;;;12.10;79.50;;;;;;5059576;28;20028;-62
2024/01/03 10:29:37;;;;;;;12.05;2.47;;;12.10;79.50;;;;;;5064969;28;20452;-62
2024/01/03 10:32:05;;;;;;;13.77;2.95;;;12.10;79.50;;;;;;5060686;28;20071;-62
2024/01/03 10:34:31;;;;;;;15.68;3.78;;;12.20;79.50;;;;;;5071972;28;20040;-63
2024/01/03 10:36:58;;;;;;;11.50;2.58;;;12.20;79.50;;;;;;5072959;28;20036;-62
2024/01/03 10:39:27;;;;;;;13.23;3.03;;;12.20;79.60;;;;;;5038195;28;20048;-62
2024/01/03 10:41:54;;;;;;;12.68;3.22;;;12.20;79.20;;;;;;5067409;28;20036;-62
2024/01/03 10:44:21;;;;;;;14.15;3.08;;;12.20;79.20;;;;;;5067964;28;20055;-62
2024/01/03 10:46:48;;;;;;;17.65;3.33;;;12.30;79.20;;;;;;5074343;28;20445;-62
2024/01/03 10:49:18;;;;;;;11.80;2.72;;;12.40;79.20;;;;;;5066098;28;20060;-62
2024/01/03 10:51:45;;;;;;;17.83;3.28;;;12.50;78.80;;;;;;5059892;28;20622;-62
2024/01/03 10:54:15;;;;;;;11.27;3.70;;;12.60;78.50;;;;;;5055115;28;20025;-62
2024/01/03 10:56:49;;;;;;;11.65;2.30;;;12.70;78.30;;;;;;5039320;28;20063;-62
2024/01/03 10:59:17;;;;;;;12.90;3.25;;;12.80;78.00;;;;;;5065333;28;20021;-62
2024/01/03 11:02:05;;;;;;;13.93;3.22;;;12.90;77.90;;;;;;5071993;28;20135;-62
2024/01/03 11:05:02;;;;;;;12.05;3.35;;;12.80;77.70;;;;;;5054446;28;20041;-63
2024/01/03 11:07:44;;;;;;;13.73;3.08;;;12.70;77.80;;;;;;5052805;28;20070;-62
2024/01/03 11:10:10;;;;;;;14.32;3.10;;;12.70;77.90;;;;;;5065397;28;20028;-62
2024/01/03 11:12:35;;;;;;;14.32;3.03;;;12.60;78.00;;;;;;5072937;28;20039;-62
2024/01/03 11:15:26;;;;;;;17.38;4.38;;;12.60;78.10;;;;;;5060422;28;20027;-62
2024/01/03 11:17:52;;;;;;;19.42;4.05;;;12.60;78.20;;;;;;5065197;28;20549;-62
2024/01/03 11:20:28;;;;;;;15.93;3.58;;;12.50;78.20;;;;;;5071905;28;20046;-62
2024/01/03 11:23:00;;;;;;;13.63;3.35;;;12.50;78.20;;;;;;5074996;28;20082;-62
2024/01/03 11:25:49;;;;;;;15.23;3.47;;;12.60;78.20;;;;;;5064680;28;20035;-64
2024/01/03 11:28:33;;;;;;;9.20;2.75;;;12.60;78.10;;;;;;5074753;28;20024;-62
2024/01/03 11:31:03;;;;;;;14.68;3.03;;;12.70;77.90;;;;;;5065997;28;20469;-64
2024/01/03 11:33:31;;;;;;;12.75;3.40;;;12.80;77.80;;;;;;5070236;28;20036;-62
2024/01/03 11:35:57;;;;;;;16.38;3.55;;;12.80;77.70;;;;;;5074791;28;20095;-62
2024/01/03 11:38:43;;;;;;;20.65;3.05;;;12.80;77.60;;;;;;5067029;28;20071;-62
2024/01/03 11:41:18;;;;;;;12.35;2.63;;;12.80;77.50;;;;;;5040815;28;20473;-62
2024/01/03 11:43:44;;;;;;;15.48;3.22;;;12.70;77.40;;;;;;5035144;28;20025;-62
2024/01/03 11:46:10;;;;;;;15.18;3.38;;;12.70;77.40;;;;;;5070463;28;20016;-62
2024/01/03 11:48:37;;;;;;;14.55;3.40;;;12.70;77.20;;;;;;5060044;28;20077;-63
2024/01/03 11:51:23;;;;;;;13.75;3.08;;;12.80;77.10;;;;;;5070740;28;20166;-62
2024/01/03 11:53:50;;;;;;;13.15;3.33;;;12.80;77.00;;;;;;5060817;28;20047;-63
2024/01/03 11:56:31;;;;;;;17.77;3.50;;;12.80;77.00;;;;;;5057583;28;20051;-62
2024/01/03 11:58:57;;;;;;;20.58;4.35;;;12.70;76.80;;;;;;5060026;28;20044;-62
2024/01/03 12:01:24;;;;;;;21.00;4.65;;;12.70;76.90;;;;;;5056453;28;20038;-62
2024/01/03 12:03:51;;;;;;;12.23;3.15;;;12.70;76.90;;;;;;5063261;28;20061;-62
2024/01/03 12:06:21;;;;;;;22.42;4.57;;;12.70;76.90;;;;;;5062846;28;20036;-62
2024/01/03 12:08:47;;;;;;;20.58;3.85;;;12.70;76.70;;;;;;5056126;28;20029;-62
2024/01/03 12:11:13;;;;;;;19.10;3.80;;;12.70;76.70;;;;;;5053320;28;20464;-62
2024/01/03 12:13:39;;;;;;;16.77;3.78;;;12.70;76.70;;;;;;5056364;28;20037;-62
2024/01/03 12:16:05;;;;;;;14.88;3.60;;;12.80;76.70;;;;;;5053790;28;20040;-62
2024/01/03 12:18:32;;;;;;;18.83;3.70;;;12.90;76.70;;;;;;5053548;28;20025;-63
2024/01/03 12:21:10;;;;;;;15.80;3.58;;;12.90;76.60;;;;;;5053835;28;20033;-64
2024/01/03 12:23:35;;;;;;;17.00;3.83;;;13.00;76.60;;;;;;5055458;28;20107;-64
2024/01/03 12:26:11;;;;;;;17.88;3.78;;;13.10;76.50;;;;;;5054192;28;20353;-64
2024/01/03 12:28:36;;;;;;;16.33;4.50;;;13.10;76.20;;;;;;5054982;28;20026;-63
2024/01/03 12:31:02;;;;;;;15.13;3.67;;;13.10;76.20;;;;;;5053480;28;20422;-63
2024/01/03 12:33:28;;;;;;;12.38;3.33;;;13.10;76.20;;;;;;5052530;28;20052;-64
2024/01/03 12:36:00;;;;;;;14.52;3.20;;;13.00;76.10;;;;;;5055787;28;20334;-64
2024/01/03 12:38:26;;;;;;;12.00;3.17;;;13.00;76.20;;;;;;5056016;28;20337;-64
2024/01/03 12:40:52;;;;;;;16.27;2.83;;;12.90;76.30;;;;;;5055474;28;20448;-64